Time;durP1;ratioP1;P1;durP2;ratioP2;P2;SDS_P1;SDS_P2;PMS_P1;PMS_P2;Temp;Humidity;BMP_temperature;BMP_pressure;BME280_temperature;BME280_humidity;BME280_pressure;Samples;Min_cycle;Max_cycle;Signal;HPM_P1;HPM_P2
2022/08/01 00:00:25;;;;;;;3.63;2.00;;;26.40;63.60;;;;;;5005410;28;20030;-60
2022/08/01 00:02:51;;;;;;;3.42;2.35;;;26.40;63.50;;;;;;5003034;28;20046;-61
2022/08/01 00:05:16;;;;;;;3.40;2.22;;;26.40;63.50;;;;;;5005612;28;20370;-60
2022/08/01 00:07:42;;;;;;;2.63;1.80;;;26.40;63.60;;;;;;5006254;28;20026;-61
2022/08/01 00:10:12;;;;;;;2.67;2.20;;;26.40;63.70;;;;;;5006634;28;20080;-61
2022/08/01 00:12:38;;;;;;;5.25;1.90;;;26.40;64.60;;;;;;5003810;28;20033;-60
2022/08/01 00:15:05;;;;;;;3.33;2.08;;;26.40;64.10;;;;;;5004730;28;20038;-61
2022/08/01 00:17:31;;;;;;;6.45;2.60;;;26.30;64.20;;;;;;5004856;28;20028;-61
2022/08/01 00:19:56;;;;;;;4.32;2.13;;;26.30;64.20;;;;;;5005802;28;20033;-61
2022/08/01 00:22:22;;;;;;;3.20;2.13;;;26.20;64.20;;;;;;4989567;28;20461;-60
2022/08/01 00:24:47;;;;;;;3.38;2.40;;;26.30;64.40;;;;;;5004275;28;20389;-61
2022/08/01 00:27:13;;;;;;;3.42;2.20;;;26.20;64.40;;;;;;5003267;28;20057;-61
2022/08/01 00:29:38;;;;;;;6.18;2.50;;;26.20;64.50;;;;;;5004922;28;20026;-60
2022/08/01 00:32:04;;;;;;;2.95;1.80;;;26.20;64.60;;;;;;5006010;28;20105;-61
2022/08/01 00:34:29;;;;;;;5.68;2.17;;;26.10;64.60;;;;;;5006160;28;20048;-61
2022/08/01 00:36:55;;;;;;;3.63;2.35;;;26.10;64.90;;;;;;4987569;28;20464;-61
2022/08/01 00:39:20;;;;;;;3.70;2.25;;;26.00;64.90;;;;;;5003398;28;20041;-61
2022/08/01 00:41:46;;;;;;;3.13;2.42;;;26.00;65.10;;;;;;5005433;28;20108;-60
2022/08/01 00:44:11;;;;;;;4.57;2.28;;;26.00;65.10;;;;;;5004076;28;20062;-60
2022/08/01 00:46:37;;;;;;;4.10;2.47;;;26.00;65.20;;;;;;5006467;28;20113;-60
2022/08/01 00:49:02;;;;;;;4.13;2.30;;;26.00;65.30;;;;;;5004330;28;20162;-61
2022/08/01 00:51:28;;;;;;;4.25;2.33;;;26.00;65.30;;;;;;4986236;28;20034;-61
2022/08/01 00:53:54;;;;;;;3.65;2.28;;;25.90;65.40;;;;;;5006402;28;20037;-60
2022/08/01 00:56:20;;;;;;;4.00;2.10;;;25.90;65.60;;;;;;4987360;28;20564;-60
2022/08/01 00:58:45;;;;;;;5.75;1.95;;;25.80;65.70;;;;;;5004542;28;20030;-61
2022/08/01 01:01:11;;;;;;;16.33;3.55;;;25.80;65.90;;;;;;5004703;28;20528;-60
2022/08/01 01:03:36;;;;;;;15.60;3.75;;;25.80;65.70;;;;;;5004045;28;20030;-60
2022/08/01 01:06:23;;;;;;;32.65;5.38;;;25.80;65.80;;;;;;5003244;28;20057;-60
2022/08/01 01:08:57;;;;;;;27.08;3.75;;;25.70;65.90;;;;;;5004512;28;20622;-61
2022/08/01 01:11:28;;;;;;;16.75;3.83;;;25.70;66.10;;;;;;5004172;28;20034;-60
2022/08/01 01:13:57;;;;;;;20.05;4.00;;;25.70;66.10;;;;;;4996915;28;20048;-60
2022/08/01 01:16:22;;;;;;;12.00;3.28;;;25.70;66.20;;;;;;5002929;28;20038;-60
2022/08/01 01:18:51;;;;;;;14.73;3.30;;;25.70;66.20;;;;;;5002185;28;20450;-60
2022/08/01 01:21:17;;;;;;;10.27;3.05;;;25.70;66.30;;;;;;5003915;28;21059;-61
2022/08/01 01:24:13;;;;;;;6.82;2.92;;;25.70;66.40;;;;;;5004870;28;20109;-60
2022/08/01 01:27:14;;;;;;;10.13;3.47;;;25.60;66.50;;;;;;5000581;28;20370;-60
2022/08/01 01:29:44;;;;;;;13.18;2.75;;;25.60;66.60;;;;;;4992291;28;20393;-60
2022/08/01 01:32:19;;;;;;;10.48;2.95;;;25.60;66.70;;;;;;4986568;28;20096;-61
2022/08/01 01:34:46;;;;;;;12.48;2.70;;;25.60;66.80;;;;;;4987322;28;20160;-61
2022/08/01 01:37:15;;;;;;;7.25;2.92;;;25.50;66.90;;;;;;4988230;28;20551;-60
2022/08/01 01:39:41;;;;;;;8.50;2.95;;;25.50;67.30;;;;;;4971884;28;20033;-61
2022/08/01 01:42:07;;;;;;;8.95;2.60;;;25.40;67.40;;;;;;4986377;28;20057;-60
2022/08/01 01:44:32;;;;;;;6.82;2.53;;;25.40;67.60;;;;;;4987680;28;20033;-61
2022/08/01 01:46:58;;;;;;;5.68;2.63;;;25.40;67.80;;;;;;5003513;28;20045;-61
2022/08/01 01:49:25;;;;;;;9.50;2.60;;;25.40;67.80;;;;;;4987148;28;20021;-60
2022/08/01 01:51:51;;;;;;;6.50;2.38;;;25.40;68.00;;;;;;4987955;28;20207;-61
2022/08/01 01:54:17;;;;;;;5.82;2.30;;;25.30;68.10;;;;;;4987851;28;20030;-60
2022/08/01 01:56:48;;;;;;;6.57;2.65;;;25.30;68.20;;;;;;5002285;28;20037;-60
2022/08/01 01:59:21;;;;;;;5.72;2.47;;;25.30;68.20;;;;;;5001789;28;20257;-60
2022/08/01 02:01:48;;;;;;;5.82;2.47;;;25.30;68.30;;;;;;4986958;28;20030;-60
2022/08/01 02:04:13;;;;;;;3.72;2.80;;;25.40;68.40;;;;;;5005250;28;20022;-60
2022/08/01 02:06:39;;;;;;;3.05;2.10;;;25.20;68.10;;;;;;4987308;28;20100;-61
2022/08/01 02:09:04;;;;;;;4.32;2.63;;;25.20;68.00;;;;;;5002303;28;20089;-60
2022/08/01 02:11:30;;;;;;;9.10;2.75;;;25.20;68.10;;;;;;5000216;28;20045;-60
2022/08/01 02:13:58;;;;;;;3.97;2.38;;;25.20;68.20;;;;;;5035364;28;20037;-60
2022/08/01 02:16:25;;;;;;;3.67;2.22;;;25.20;68.30;;;;;;5003724;28;20029;-61
2022/08/01 02:18:50;;;;;;;4.40;2.33;;;25.20;68.30;;;;;;5002175;28;20476;-61
2022/08/01 02:21:23;;;;;;;3.47;2.35;;;25.20;68.50;;;;;;5003551;28;20026;-61
2022/08/01 02:23:48;;;;;;;4.05;2.28;;;25.10;68.70;;;;;;4987755;28;21565;-60
2022/08/01 02:26:14;;;;;;;5.63;2.30;;;25.10;69.00;;;;;;5000811;28;20049;-61
2022/08/01 02:29:06;;;;;;;2.30;2.10;;;25.00;69.10;;;;;;4985528;28;20360;-60
2022/08/01 02:31:33;;;;;;;2.38;2.15;;;25.00;69.20;;;;;;5003342;28;20069;-61
2022/08/01 02:34:06;;;;;;;4.80;2.20;;;25.00;69.20;;;;;;4987118;28;20068;-60
2022/08/01 02:36:33;;;;;;;4.30;2.20;;;24.90;69.00;;;;;;4986666;28;20034;-61
2022/08/01 02:39:03;;;;;;;2.45;2.15;;;24.90;69.10;;;;;;5003284;28;20030;-61
2022/08/01 02:41:29;;;;;;;4.07;2.28;;;24.90;69.20;;;;;;5001293;28;20045;-61
2022/08/01 02:43:58;;;;;;;3.42;2.38;;;24.90;69.30;;;;;;4985320;28;20045;-61
2022/08/01 02:46:27;;;;;;;3.72;2.30;;;24.90;69.50;;;;;;4984763;28;20034;-60
2022/08/01 02:48:53;;;;;;;3.75;2.78;;;24.80;69.60;;;;;;4982763;28;20430;-60
2022/08/01 02:51:18;;;;;;;2.60;2.08;;;24.80;69.60;;;;;;4982653;28;20049;-61
2022/08/01 02:53:44;;;;;;;4.28;2.30;;;24.80;69.80;;;;;;5002470;28;20502;-60
2022/08/01 02:56:09;;;;;;;4.97;2.35;;;24.80;69.80;;;;;;4984558;28;20133;-61
2022/08/01 02:58:35;;;;;;;3.03;2.15;;;24.80;69.90;;;;;;4985390;28;20054;-61
2022/08/01 03:01:01;;;;;;;2.92;2.10;;;24.70;69.90;;;;;;5000220;28;20030;-60
2022/08/01 03:03:27;;;;;;;3.70;2.33;;;24.70;69.90;;;;;;4985649;28;20028;-61
2022/08/01 03:05:52;;;;;;;3.17;2.15;;;24.70;70.00;;;;;;4985015;28;20053;-60
2022/08/01 03:08:18;;;;;;;2.78;1.90;;;24.70;69.90;;;;;;5002413;28;20061;-61
2022/08/01 03:10:44;;;;;;;4.35;2.05;;;24.60;70.00;;;;;;5005325;28;20038;-60
2022/08/01 03:13:10;;;;;;;2.38;2.08;;;24.80;70.20;;;;;;5005864;28;21161;-60
2022/08/01 03:15:37;;;;;;;4.55;2.17;;;24.60;70.10;;;;;;4972869;28;20128;-61
2022/08/01 03:18:03;;;;;;;2.83;2.40;;;24.60;70.20;;;;;;4988439;28;20061;-61
2022/08/01 03:20:28;;;;;;;3.78;2.40;;;24.60;70.20;;;;;;5004040;28;20050;-61
2022/08/01 03:22:54;;;;;;;3.47;2.08;;;24.50;70.20;;;;;;4990678;28;20076;-60
2022/08/01 03:25:19;;;;;;;2.85;2.17;;;24.50;70.30;;;;;;5006128;28;20472;-60
2022/08/01 03:27:47;;;;;;;3.08;1.85;;;24.50;70.20;;;;;;4989435;28;20033;-61
2022/08/01 03:30:13;;;;;;;3.28;2.40;;;24.50;70.20;;;;;;5004246;28;20065;-60
2022/08/01 03:32:39;;;;;;;4.70;2.22;;;24.50;70.40;;;;;;5021126;28;20061;-60
2022/08/01 03:35:04;;;;;;;3.20;2.17;;;24.50;70.40;;;;;;5006110;28;20057;-60
2022/08/01 03:37:51;;;;;;;3.97;2.40;;;24.50;70.40;;;;;;5005838;28;20042;-60
2022/08/01 03:40:22;;;;;;;3.03;2.33;;;24.40;70.50;;;;;;5005254;28;20030;-60
2022/08/01 03:42:48;;;;;;;2.78;2.10;;;24.40;70.60;;;;;;4991019;28;20037;-60
2022/08/01 03:45:19;;;;;;;5.22;2.15;;;24.40;70.80;;;;;;4987379;28;20108;-60
2022/08/01 03:47:44;;;;;;;5.05;1.90;;;24.40;70.90;;;;;;4985758;28;20080;-60
2022/08/01 03:50:10;;;;;;;2.75;2.13;;;24.30;70.90;;;;;;4987730;28;20030;-60
2022/08/01 03:52:35;;;;;;;3.58;2.00;;;24.30;71.00;;;;;;5005387;28;20033;-60
2022/08/01 03:55:06;;;;;;;4.07;2.10;;;24.20;71.10;;;;;;4988577;28;20049;-60
2022/08/01 03:57:32;;;;;;;3.53;2.22;;;24.30;71.30;;;;;;5019885;28;20034;-60
2022/08/01 03:59:57;;;;;;;4.20;2.25;;;24.20;71.40;;;;;;5004856;28;20032;-61
2022/08/01 04:02:23;;;;;;;2.42;2.05;;;24.20;71.50;;;;;;5006939;28;20409;-60
2022/08/01 04:04:49;;;;;;;3.10;2.05;;;24.20;71.50;;;;;;5004957;28;20022;-61
2022/08/01 04:07:24;;;;;;;4.40;2.08;;;24.20;71.60;;;;;;5003962;28;20449;-61
2022/08/01 04:09:50;;;;;;;3.58;2.10;;;24.10;71.70;;;;;;5019848;28;20481;-61
2022/08/01 04:12:16;;;;;;;3.20;2.10;;;24.10;71.60;;;;;;5005091;28;20293;-60
2022/08/01 04:14:41;;;;;;;4.57;2.17;;;24.10;71.70;;;;;;5007249;28;20030;-61
2022/08/01 04:17:07;;;;;;;3.08;2.50;;;24.10;71.70;;;;;;5005288;28;20030;-61
2022/08/01 04:19:32;;;;;;;3.78;2.30;;;24.10;71.80;;;;;;5004680;28;20018;-60
2022/08/01 04:21:58;;;;;;;2.92;2.00;;;24.00;71.90;;;;;;5002074;28;20795;-61
2022/08/01 04:24:23;;;;;;;2.40;2.20;;;24.00;72.00;;;;;;5003106;28;20502;-61
2022/08/01 04:26:49;;;;;;;5.90;2.25;;;24.00;71.90;;;;;;4988605;28;20022;-61
2022/08/01 04:29:15;;;;;;;3.50;2.22;;;24.00;72.00;;;;;;5004609;28;20030;-61
2022/08/01 04:31:42;;;;;;;2.85;2.20;;;24.00;72.00;;;;;;5003199;28;20501;-61
2022/08/01 04:34:07;;;;;;;2.65;2.40;;;24.00;72.30;;;;;;5004452;28;20037;-61
2022/08/01 04:36:34;;;;;;;3.30;2.17;;;23.90;72.30;;;;;;5002694;28;20042;-60
2022/08/01 04:39:00;;;;;;;4.45;2.08;;;23.90;72.40;;;;;;4986861;28;20028;-61
2022/08/01 04:41:26;;;;;;;4.72;2.20;;;23.90;72.50;;;;;;4986567;28;20121;-60
2022/08/01 04:43:52;;;;;;;3.63;2.25;;;23.90;72.70;;;;;;4986169;28;20124;-61
2022/08/01 04:46:17;;;;;;;2.90;2.20;;;23.90;72.60;;;;;;4986572;28;20050;-60
2022/08/01 04:48:44;;;;;;;3.30;2.25;;;23.90;72.70;;;;;;5004234;28;20429;-61
2022/08/01 04:51:15;;;;;;;3.35;2.38;;;23.90;72.80;;;;;;4986084;28;20026;-61
2022/08/01 04:53:40;;;;;;;3.03;2.50;;;23.80;72.80;;;;;;5005138;28;20026;-61
2022/08/01 04:56:06;;;;;;;2.65;2.00;;;23.90;72.90;;;;;;4986994;28;20056;-61
2022/08/01 04:58:32;;;;;;;3.85;2.55;;;23.80;73.00;;;;;;5004653;28;20026;-60
2022/08/01 05:00:57;;;;;;;3.67;2.50;;;23.80;73.00;;;;;;5003219;28;20095;-61
2022/08/01 05:03:23;;;;;;;5.03;2.58;;;23.80;73.10;;;;;;5003279;28;20054;-60
2022/08/01 05:05:48;;;;;;;3.60;2.35;;;23.80;73.30;;;;;;5004735;28;20034;-60
2022/08/01 05:08:14;;;;;;;4.47;2.20;;;23.70;73.30;;;;;;4988057;28;20018;-60
2022/08/01 05:10:39;;;;;;;4.35;2.30;;;23.70;73.40;;;;;;5004200;28;20884;-60
2022/08/01 05:13:06;;;;;;;3.08;2.40;;;23.70;73.50;;;;;;5003872;28;20404;-61
2022/08/01 05:15:31;;;;;;;3.40;2.15;;;23.70;73.50;;;;;;5002775;28;20038;-60
2022/08/01 05:17:57;;;;;;;2.90;2.22;;;23.70;73.60;;;;;;5002440;28;20212;-61
2022/08/01 05:20:22;;;;;;;3.80;2.50;;;23.70;73.70;;;;;;5002996;28;20042;-60
2022/08/01 05:22:48;;;;;;;3.25;2.30;;;23.70;73.80;;;;;;5004015;28;20026;-61
2022/08/01 05:25:13;;;;;;;3.95;2.08;;;23.70;73.60;;;;;;5003328;28;20026;-60
2022/08/01 05:27:40;;;;;;;6.82;2.58;;;23.70;73.70;;;;;;5002219;28;20377;-61
2022/08/01 05:30:09;;;;;;;2.90;2.30;;;23.70;73.80;;;;;;5003088;28;20025;-60
2022/08/01 05:32:34;;;;;;;3.55;2.40;;;23.70;73.80;;;;;;4986808;28;20033;-60
2022/08/01 05:35:00;;;;;;;5.50;2.53;;;23.70;73.70;;;;;;5003746;28;20137;-60
2022/08/01 05:37:26;;;;;;;4.07;2.50;;;23.70;73.80;;;;;;5002254;28;20026;-61
2022/08/01 05:39:51;;;;;;;5.72;2.42;;;23.70;73.80;;;;;;4985995;28;20040;-61
2022/08/01 05:42:17;;;;;;;2.50;2.30;;;23.70;73.90;;;;;;5002328;28;20057;-61
2022/08/01 05:44:42;;;;;;;4.53;2.50;;;23.70;74.00;;;;;;5004725;28;20173;-61
2022/08/01 05:47:08;;;;;;;3.30;2.75;;;23.70;74.10;;;;;;5003394;28;20045;-61
2022/08/01 05:49:33;;;;;;;5.63;2.35;;;23.60;74.10;;;;;;5000259;28;20030;-60
2022/08/01 05:52:00;;;;;;;3.30;2.50;;;23.70;74.20;;;;;;5003480;28;20053;-61
2022/08/01 05:54:26;;;;;;;5.40;2.60;;;23.60;74.30;;;;;;5003990;28;20181;-60
2022/08/01 05:56:51;;;;;;;5.55;2.58;;;23.60;74.50;;;;;;5003515;28;20030;-61
2022/08/01 05:59:17;;;;;;;3.65;2.25;;;23.60;74.60;;;;;;5003098;28;20121;-61
2022/08/01 06:01:42;;;;;;;2.85;2.30;;;23.60;74.50;;;;;;5002578;28;20241;-61
2022/08/01 06:04:08;;;;;;;2.83;2.47;;;23.60;74.60;;;;;;5002950;28;20560;-61
2022/08/01 06:06:33;;;;;;;3.08;2.50;;;23.60;74.40;;;;;;5003286;28;20049;-61
2022/08/01 06:08:59;;;;;;;5.47;2.20;;;23.60;74.40;;;;;;5003772;28;20033;-60
2022/08/01 06:11:24;;;;;;;2.40;2.20;;;23.60;74.40;;;;;;5003043;28;20066;-61
2022/08/01 06:13:50;;;;;;;2.83;2.10;;;23.60;74.40;;;;;;5005159;28;20117;-60
2022/08/01 06:16:16;;;;;;;3.38;2.22;;;23.60;74.50;;;;;;4970382;28;20128;-61
2022/08/01 06:18:41;;;;;;;3.90;2.28;;;23.60;74.50;;;;;;4999583;28;20104;-61
2022/08/01 06:21:07;;;;;;;2.45;2.25;;;23.60;74.60;;;;;;5000488;28;20057;-60
2022/08/01 06:23:32;;;;;;;4.07;2.72;;;23.50;74.50;;;;;;4985716;28;20034;-60
2022/08/01 06:25:58;;;;;;;3.60;2.05;;;23.50;74.70;;;;;;5000912;28;20044;-60
2022/08/01 06:28:23;;;;;;;3.00;2.33;;;23.50;74.70;;;;;;5004175;28;20036;-60
2022/08/01 06:30:49;;;;;;;3.60;2.20;;;23.50;74.70;;;;;;5001372;28;20052;-60
2022/08/01 06:33:14;;;;;;;3.30;2.05;;;23.50;74.60;;;;;;5002455;28;20030;-61
2022/08/01 06:35:40;;;;;;;5.32;2.28;;;23.50;74.60;;;;;;5003278;28;20042;-60
2022/08/01 06:38:05;;;;;;;3.53;2.35;;;23.50;74.60;;;;;;5005764;28;20022;-61
2022/08/01 06:40:31;;;;;;;3.20;2.17;;;23.50;74.60;;;;;;5003206;28;20133;-60
2022/08/01 06:42:57;;;;;;;5.55;2.83;;;23.60;74.60;;;;;;5003730;28;20127;-60
2022/08/01 06:45:24;;;;;;;5.07;2.33;;;23.60;74.60;;;;;;5000938;28;20045;-60
2022/08/01 06:47:50;;;;;;;3.35;2.33;;;23.50;74.40;;;;;;5002701;28;20509;-60
2022/08/01 06:50:15;;;;;;;2.60;2.20;;;23.50;74.40;;;;;;5002707;28;20026;-60
2022/08/01 06:52:41;;;;;;;4.07;2.75;;;23.50;74.30;;;;;;5004673;28;20072;-61
2022/08/01 06:55:07;;;;;;;3.95;2.38;;;23.50;74.40;;;;;;5003165;28;20072;-61
2022/08/01 06:57:32;;;;;;;3.05;2.10;;;23.60;74.40;;;;;;5002232;28;20113;-61
2022/08/01 07:00:00;;;;;;;3.08;2.78;;;23.60;74.70;;;;;;5001802;28;20034;-61
2022/08/01 07:02:25;;;;;;;4.78;2.20;;;23.60;74.50;;;;;;5016516;28;20034;-61
2022/08/01 07:04:51;;;;;;;3.28;2.78;;;23.50;74.70;;;;;;5003576;28;20061;-61
2022/08/01 07:07:17;;;;;;;2.72;2.45;;;23.50;74.70;;;;;;5003316;28;20029;-61
2022/08/01 07:09:43;;;;;;;2.80;2.40;;;23.50;74.80;;;;;;5002774;28;20413;-60
2022/08/01 07:12:08;;;;;;;4.00;2.60;;;23.60;74.90;;;;;;5003409;28;20038;-60
2022/08/01 07:14:34;;;;;;;3.28;2.67;;;23.50;74.90;;;;;;5001008;28;20037;-61
2022/08/01 07:16:59;;;;;;;2.63;2.15;;;23.50;74.80;;;;;;4994664;28;20438;-61
2022/08/01 07:19:25;;;;;;;4.13;3.03;;;23.50;74.60;;;;;;5001645;28;20113;-61
2022/08/01 07:21:50;;;;;;;3.78;2.80;;;23.50;74.50;;;;;;5001927;28;20257;-61
2022/08/01 07:24:16;;;;;;;3.50;2.40;;;23.50;74.40;;;;;;5001311;28;20410;-61
2022/08/01 07:26:43;;;;;;;4.38;2.63;;;23.50;74.40;;;;;;5000050;28;20038;-60
2022/08/01 07:29:08;;;;;;;2.55;2.20;;;23.60;74.40;;;;;;4996717;28;20962;-60
2022/08/01 07:31:34;;;;;;;3.72;2.67;;;23.60;74.20;;;;;;4999075;28;20112;-61
2022/08/01 07:33:59;;;;;;;4.95;2.50;;;23.60;74.00;;;;;;5000452;28;20045;-61
2022/08/01 07:36:25;;;;;;;2.92;2.40;;;23.60;73.90;;;;;;4998320;28;20034;-61
2022/08/01 07:38:51;;;;;;;4.40;2.63;;;23.60;73.80;;;;;;4999713;28;20148;-60
2022/08/01 07:41:16;;;;;;;3.20;2.53;;;23.60;73.60;;;;;;4999610;28;20435;-60
2022/08/01 07:43:42;;;;;;;3.05;2.40;;;23.70;73.50;;;;;;5000463;28;20065;-61
2022/08/01 07:46:07;;;;;;;3.13;2.25;;;23.70;73.30;;;;;;5000271;28;20033;-60
2022/08/01 07:48:33;;;;;;;2.65;2.10;;;23.70;73.20;;;;;;4999510;28;20034;-60
2022/08/01 07:50:58;;;;;;;2.95;2.30;;;23.70;72.90;;;;;;4996189;28;20069;-60
2022/08/01 07:53:24;;;;;;;2.75;2.28;;;23.70;72.80;;;;;;5001420;28;20508;-60
2022/08/01 07:55:49;;;;;;;2.78;2.03;;;23.70;72.80;;;;;;4998023;28;20041;-60
2022/08/01 07:58:16;;;;;;;6.18;2.40;;;23.70;72.80;;;;;;4983037;28;20041;-60
2022/08/01 08:00:41;;;;;;;5.10;2.40;;;23.70;72.70;;;;;;5001987;28;20108;-61
2022/08/01 08:03:07;;;;;;;2.28;2.08;;;23.70;72.60;;;;;;5002375;28;20449;-61
2022/08/01 08:05:34;;;;;;;2.58;2.33;;;23.70;72.20;;;;;;4985263;28;20030;-61
2022/08/01 08:08:07;;;;;;;3.00;1.98;;;23.70;72.20;;;;;;5003339;28;20110;-61
2022/08/01 08:10:32;;;;;;;6.97;2.63;;;23.70;72.20;;;;;;4999975;28;20030;-61
2022/08/01 08:12:58;;;;;;;8.43;2.55;;;23.70;72.20;;;;;;5000564;28;20034;-61
2022/08/01 08:15:23;;;;;;;10.70;2.70;;;23.70;72.20;;;;;;5002344;28;20111;-61
2022/08/01 08:17:49;;;;;;;5.68;2.95;;;23.80;72.30;;;;;;5000396;28;20092;-60
2022/08/01 08:20:15;;;;;;;5.00;2.47;;;23.80;72.20;;;;;;4997677;28;20046;-61
2022/08/01 08:22:40;;;;;;;9.68;2.90;;;23.80;72.00;;;;;;5002860;28;20387;-61
2022/08/01 08:25:06;;;;;;;5.53;2.30;;;23.80;72.20;;;;;;5002342;28;20040;-61
2022/08/01 08:27:32;;;;;;;8.73;2.53;;;23.80;72.10;;;;;;4999116;28;20126;-61
2022/08/01 08:29:57;;;;;;;9.48;2.75;;;23.80;72.00;;;;;;4996784;28;20465;-61
2022/08/01 08:32:23;;;;;;;5.53;2.72;;;23.90;72.00;;;;;;4995920;28;20025;-61
2022/08/01 08:34:48;;;;;;;13.75;3.28;;;23.90;72.00;;;;;;4999065;28;20513;-61
2022/08/01 08:37:14;;;;;;;13.25;2.92;;;23.90;72.00;;;;;;5000589;28;20284;-61
2022/08/01 08:39:41;;;;;;;39.47;5.32;;;23.90;71.80;;;;;;5000274;28;20165;-61
2022/08/01 08:42:06;;;;;;;10.55;3.13;;;24.00;72.10;;;;;;4998914;28;20488;-61
2022/08/01 08:44:32;;;;;;;19.70;3.10;;;24.00;72.00;;;;;;4999551;28;20046;-61
2022/08/01 08:46:58;;;;;;;17.67;3.72;;;24.10;71.90;;;;;;4999464;28;20025;-61
2022/08/01 08:49:25;;;;;;;30.98;4.53;;;24.10;71.80;;;;;;4998462;28;20026;-60
2022/08/01 08:51:51;;;;;;;23.70;4.75;;;24.10;71.70;;;;;;5013624;28;20079;-61
2022/08/01 08:54:20;;;;;;;23.27;4.47;;;24.20;71.80;;;;;;4981996;28;20041;-60
2022/08/01 08:56:46;;;;;;;25.15;4.80;;;24.20;72.00;;;;;;4996243;28;20451;-60
2022/08/01 08:59:13;;;;;;;51.08;7.65;;;24.20;71.60;;;;;;4997458;28;20029;-61
2022/08/01 09:01:38;;;;;;;164.57;16.02;;;24.20;71.60;;;;;;4999099;28;20141;-61
2022/08/01 09:04:04;;;;;;;61.88;8.43;;;24.30;71.60;;;;;;4995382;28;20024;-61
2022/08/01 09:06:30;;;;;;;62.40;8.27;;;24.30;71.60;;;;;;4994218;28;20049;-60
2022/08/01 09:08:57;;;;;;;56.78;7.95;;;24.40;71.40;;;;;;5012536;28;20481;-61
2022/08/01 09:11:22;;;;;;;51.80;6.78;;;24.40;71.10;;;;;;4997253;28;20389;-61
2022/08/01 09:14:04;;;;;;;68.18;9.13;;;24.40;71.20;;;;;;4996245;28;20033;-61
2022/08/01 09:16:31;;;;;;;64.25;8.55;;;24.40;71.10;;;;;;4996485;28;20057;-60
2022/08/01 09:19:13;;;;;;;47.33;7.43;;;24.50;71.40;;;;;;4974057;28;20590;-60
2022/08/01 09:21:39;;;;;;;77.47;8.13;;;24.50;71.00;;;;;;4995695;28;20061;-60
2022/08/01 09:24:13;;;;;;;54.58;7.30;;;24.50;70.90;;;;;;4980710;28;20482;-61
2022/08/01 09:26:39;;;;;;;58.03;7.82;;;24.50;70.80;;;;;;4998032;28;20034;-61
2022/08/01 09:29:05;;;;;;;76.25;10.15;;;24.50;70.90;;;;;;4998438;28;20033;-61
2022/08/01 09:31:40;;;;;;;41.85;7.63;;;24.60;71.00;;;;;;4980078;28;20431;-61
2022/08/01 09:34:05;;;;;;;57.85;8.43;;;24.60;70.60;;;;;;4978661;28;20037;-61
2022/08/01 09:37:01;;;;;;;46.63;7.20;;;24.60;70.70;;;;;;4998524;28;20081;-61
2022/08/01 09:39:28;;;;;;;52.43;7.77;;;24.70;70.70;;;;;;4989612;28;20096;-61
2022/08/01 09:41:54;;;;;;;109.22;11.88;;;24.80;70.60;;;;;;4995939;28;20038;-61
2022/08/01 09:44:24;;;;;;;56.45;8.13;;;24.80;70.60;;;;;;4995455;28;20646;-63
2022/08/01 09:46:54;;;;;;;55.92;7.00;;;24.90;70.40;;;;;;4975493;28;20142;-61
2022/08/01 09:49:28;;;;;;;53.00;8.90;;;25.00;70.10;;;;;;4993380;28;20030;-60
2022/08/01 09:51:53;;;;;;;78.07;9.25;;;25.10;70.40;;;;;;4997232;28;20072;-61
2022/08/01 09:54:31;;;;;;;57.58;8.85;;;25.00;70.10;;;;;;4999174;28;20034;-61
2022/08/01 09:57:16;;;;;;;57.47;7.90;;;25.00;70.40;;;;;;4997112;28;20033;-60
2022/08/01 09:59:44;;;;;;;71.50;9.57;;;25.10;70.40;;;;;;4999490;28;20030;-61
2022/08/01 10:02:13;;;;;;;58.78;8.32;;;25.10;70.20;;;;;;4993584;28;20032;-61
2022/08/01 10:04:45;;;;;;;69.05;8.55;;;25.10;70.00;;;;;;5009228;28;20141;-60
2022/08/01 10:07:11;;;;;;;49.25;7.07;;;25.20;70.00;;;;;;4993863;28;20088;-62
2022/08/01 10:09:37;;;;;;;50.85;7.50;;;25.20;70.00;;;;;;4991628;28;20656;-63
2022/08/01 10:12:03;;;;;;;41.47;6.63;;;25.20;69.70;;;;;;4993811;28;20026;-61
2022/08/01 10:14:29;;;;;;;54.38;8.00;;;25.20;69.50;;;;;;4994650;28;20545;-61
2022/08/01 10:16:56;;;;;;;57.60;9.20;;;25.30;69.40;;;;;;4997193;28;20033;-61
2022/08/01 10:19:23;;;;;;;61.63;8.75;;;25.30;69.40;;;;;;4997139;28;20121;-61
2022/08/01 10:21:51;;;;;;;42.92;7.07;;;25.30;69.00;;;;;;4981610;28;20092;-61
2022/08/01 10:24:17;;;;;;;85.70;10.05;;;25.30;68.80;;;;;;4998213;28;20061;-61
2022/08/01 10:26:42;;;;;;;102.03;12.50;;;25.40;68.90;;;;;;4996529;28;20109;-61
2022/08/01 10:29:08;;;;;;;58.10;7.88;;;25.40;67.90;;;;;;4995751;28;20034;-61
2022/08/01 10:31:33;;;;;;;68.97;10.85;;;25.40;67.60;;;;;;4981149;28;20171;-61
2022/08/01 10:34:00;;;;;;;39.78;6.50;;;25.40;66.90;;;;;;4979966;28;20034;-60
2022/08/01 10:36:25;;;;;;;41.58;6.10;;;25.50;66.30;;;;;;5008165;28;20033;-60
2022/08/01 10:38:51;;;;;;;41.97;6.70;;;25.50;66.20;;;;;;4993954;28;20041;-61
2022/08/01 10:41:17;;;;;;;45.78;6.63;;;25.60;65.80;;;;;;4993592;28;20060;-61
2022/08/01 10:43:43;;;;;;;34.72;6.40;;;25.60;65.70;;;;;;4994879;28;20576;-61
2022/08/01 10:46:08;;;;;;;41.55;6.15;;;25.60;65.50;;;;;;4998568;28;20036;-61
2022/08/01 10:48:49;;;;;;;43.10;6.05;;;25.70;65.40;;;;;;4981099;28;20036;-61
2022/08/01 10:51:15;;;;;;;38.70;6.63;;;25.70;65.40;;;;;;4980813;28;20559;-61
2022/08/01 10:53:46;;;;;;;44.75;6.07;;;25.70;65.30;;;;;;4998483;28;20037;-61
2022/08/01 10:56:12;;;;;;;42.20;6.78;;;25.80;65.40;;;;;;5002130;28;20041;-61
2022/08/01 10:58:40;;;;;;;42.75;6.00;;;25.80;65.60;;;;;;5000061;28;20042;-60
2022/08/01 11:01:13;;;;;;;40.08;6.75;;;25.80;65.20;;;;;;4997704;28;20060;-61
2022/08/01 11:03:38;;;;;;;65.50;6.25;;;26.00;65.40;;;;;;4996947;28;20902;-61
2022/08/01 11:06:04;;;;;;;31.73;6.00;;;26.10;65.30;;;;;;5000531;28;20034;-60
2022/08/01 11:08:30;;;;;;;57.60;6.57;;;26.10;65.00;;;;;;4995437;28;20057;-62
2022/08/01 11:11:03;;;;;;;37.55;5.30;;;26.20;65.00;;;;;;4997934;28;20026;-61
2022/08/01 11:14:10;;;;;;;41.42;5.32;;;26.20;64.70;;;;;;4999526;28;20050;-61
2022/08/01 11:16:36;;;;;;;25.73;4.72;;;26.30;64.60;;;;;;5001308;28;20037;-61
2022/08/01 11:19:05;;;;;;;35.42;4.32;;;26.40;64.20;;;;;;4998403;28;20541;-61
2022/08/01 11:21:53;;;;;;;16.05;3.78;;;26.40;63.70;;;;;;4998375;28;20025;-60
2022/08/01 11:24:47;;;;;;;34.25;4.70;;;26.60;63.10;;;;;;4998820;28;20485;-61
2022/08/01 11:27:20;;;;;;;39.15;5.25;;;26.70;62.70;;;;;;4999559;28;20056;-61
2022/08/01 11:30:08;;;;;;;39.08;4.60;;;26.80;62.80;;;;;;5000194;28;20030;-61
2022/08/01 11:32:33;;;;;;;41.08;5.05;;;26.90;62.40;;;;;;5003293;28;20026;-61
2022/08/01 11:34:59;;;;;;;33.58;4.55;;;27.00;61.90;;;;;;5003575;28;20045;-61
2022/08/01 11:37:25;;;;;;;22.52;4.00;;;27.10;61.80;;;;;;5002730;28;20046;-61
2022/08/01 11:40:22;;;;;;;25.48;5.03;;;27.20;61.50;;;;;;5001554;28;20373;-61
2022/08/01 11:43:14;;;;;;;47.60;6.18;;;27.30;61.20;;;;;;5003114;28;20038;-60
2022/08/01 11:45:54;;;;;;;61.53;6.93;;;27.40;61.20;;;;;;4997659;28;20072;-60
2022/08/01 11:48:21;;;;;;;39.15;5.63;;;27.50;60.90;;;;;;5018647;28;20096;-61
2022/08/01 11:50:47;;;;;;;32.00;4.85;;;27.60;60.40;;;;;;5004746;28;20018;-61
2022/08/01 11:53:15;;;;;;;33.53;5.30;;;27.60;59.80;;;;;;4987539;28;20685;-61
2022/08/01 11:55:48;;;;;;;39.65;4.47;;;27.80;59.70;;;;;;5003642;28;20140;-61
2022/08/01 11:58:20;;;;;;;22.33;3.08;;;27.90;59.30;;;;;;5001335;28;20083;-62
2022/08/01 12:00:55;;;;;;;22.95;4.03;;;28.00;58.30;;;;;;5003690;28;20034;-62
2022/08/01 12:03:31;;;;;;;22.48;3.58;;;28.10;58.40;;;;;;5002481;28;20133;-61
2022/08/01 12:05:57;;;;;;;21.77;3.63;;;28.20;57.70;;;;;;5001140;28;20018;-61
2022/08/01 12:08:26;;;;;;;47.03;4.45;;;28.30;57.40;;;;;;4985240;28;20035;-61
2022/08/01 12:10:52;;;;;;;48.33;6.47;;;28.40;57.50;;;;;;5002916;28;20038;-61
2022/08/01 12:13:17;;;;;;;77.68;9.32;;;28.50;57.70;;;;;;5003833;28;20026;-61
2022/08/01 12:15:44;;;;;;;49.30;6.40;;;28.50;57.70;;;;;;5002849;28;20034;-61
2022/08/01 12:18:09;;;;;;;44.65;6.95;;;28.60;57.20;;;;;;4986361;28;20045;-61
2022/08/01 12:20:37;;;;;;;76.22;8.05;;;28.60;57.00;;;;;;5003579;28;20058;-61
2022/08/01 12:23:10;;;;;;;44.42;6.00;;;28.70;57.20;;;;;;5001038;28;20030;-61
2022/08/01 12:25:36;;;;;;;36.78;5.07;;;28.70;56.20;;;;;;4999563;28;20101;-61
2022/08/01 12:28:03;;;;;;;55.13;6.70;;;28.80;55.80;;;;;;4999292;28;20037;-61
2022/08/01 12:30:30;;;;;;;70.57;9.18;;;28.90;55.70;;;;;;5034351;28;20026;-62
2022/08/01 12:32:56;;;;;;;78.97;10.40;;;28.90;55.30;;;;;;5001346;28;20022;-61
2022/08/01 12:35:26;;;;;;;135.77;10.25;;;29.00;55.50;;;;;;5003581;28;20910;-62
2022/08/01 12:37:56;;;;;;;72.85;9.02;;;29.00;55.20;;;;;;5003800;28;20026;-62
2022/08/01 12:40:22;;;;;;;100.63;10.88;;;29.10;54.90;;;;;;5002704;28;20030;-61
2022/08/01 12:42:52;;;;;;;78.00;9.32;;;29.20;55.00;;;;;;5003651;28;20038;-61
2022/08/01 12:45:19;;;;;;;76.75;9.07;;;29.20;54.30;;;;;;5001437;28;20165;-62